Clear Creek, Texas
Current Conditions -  °F | °C
As of 8:58 AM on Friday 19 Dec 2014 (Local Time) from KHLR Reporting Station
Haze Haze  
Wind Chill: 44°   Ceiling: 500
Heat Index: 48°   Visibility: 5mi
Dew Point: 47°   Wind: 8mph
Humidity: 98%   Direction: 360°N
Pressure: 30.13"   Gusts: NA
Location:  31.2151°N, 97.7405°W
Report Text: KHLR 191458Z AUTO 36007KT 5SM BR OVC005 09/08 A3013 RMK AO2 RAB1432E1447 SLP202 P0000 60013 T00870084 55011
Loading
Personal Weather Stations






























Interactive Weather Map New forecast layout! Learn more

10-Day Weather Forecast

Advertisements
Track Severe Weather on mobile